createdAt,value
2023-01-05T00:01:12.040Z,4.60
2023-01-05T00:03:39.018Z,3.75
2023-01-05T00:06:13.129Z,5.10
2023-01-05T00:08:40.685Z,4.72
2023-01-05T00:11:29.884Z,5.13
2023-01-05T00:14:15.415Z,4.65
2023-01-05T00:17:00.823Z,4.63
2023-01-05T00:19:46.373Z,5.63
2023-01-05T00:22:30.888Z,5.50
2023-01-05T00:25:03.522Z,4.45
2023-01-05T00:27:36.271Z,5.03
2023-01-05T00:30:03.488Z,5.43
2023-01-05T00:32:30.095Z,4.25
2023-01-05T00:34:58.073Z,5.82
2023-01-05T00:37:27.789Z,6.10
2023-01-05T00:39:54.423Z,4.68
2023-01-05T00:42:21.220Z,4.97
2023-01-05T00:44:47.943Z,4.80
2023-01-05T00:47:14.710Z,4.75
2023-01-05T00:49:42.008Z,4.13
2023-01-05T00:52:08.893Z,4.68
2023-01-05T00:54:35.558Z,5.47
2023-01-05T00:57:02.670Z,4.97
2023-01-05T00:59:29.293Z,5.38
2023-01-05T01:01:56.058Z,5.43
2023-01-05T01:04:22.903Z,4.35
2023-01-05T01:06:49.587Z,5.30
2023-01-05T01:09:16.294Z,4.45
2023-01-05T01:11:42.968Z,4.90
2023-01-05T01:14:11.607Z,3.70
2023-01-05T01:16:38.532Z,5.25
2023-01-05T01:19:05.703Z,4.35
2023-01-05T01:21:32.525Z,4.05
2023-01-05T01:23:59.111Z,6.28
2023-01-05T01:26:25.702Z,4.38
2023-01-05T01:28:52.315Z,5.78
2023-01-05T01:31:19.037Z,4.35
2023-01-05T01:33:45.684Z,5.18
2023-01-05T01:36:12.451Z,5.07
2023-01-05T01:38:39.215Z,5.43
2023-01-05T01:41:05.912Z,5.45
2023-01-05T01:43:50.775Z,5.85
2023-01-05T01:46:18.925Z,6.35
2023-01-05T01:48:58.924Z,5.75
2023-01-05T01:51:41.200Z,5.15
2023-01-05T01:54:11.601Z,4.55
2023-01-05T01:56:45.623Z,5.90
2023-01-05T01:59:13.342Z,4.47
2023-01-05T02:01:40.588Z,5.00
2023-01-05T02:04:09.078Z,5.57
2023-01-05T02:06:36.064Z,5.63
2023-01-05T02:09:04.291Z,6.22
2023-01-05T02:12:04.585Z,5.78
2023-01-05T02:15:04.490Z,4.07
2023-01-05T02:17:48.762Z,4.20
2023-01-05T02:20:49.608Z,5.78
2023-01-05T02:23:37.772Z,6.82
2023-01-05T02:26:28.868Z,5.50
2023-01-05T02:29:29.023Z,4.43
2023-01-05T02:32:21.855Z,5.15
2023-01-05T02:35:21.158Z,5.43
2023-01-05T02:37:57.815Z,5.03
2023-01-05T02:40:29.532Z,4.43
2023-01-05T02:42:57.784Z,5.45
2023-01-05T02:45:24.838Z,4.38
2023-01-05T02:47:51.503Z,4.63
2023-01-05T02:50:30.157Z,5.45
2023-01-05T02:53:09.578Z,5.30
2023-01-05T02:55:41.942Z,4.90
2023-01-05T02:58:21.188Z,4.82
2023-01-05T03:00:57.188Z,6.20
2023-01-05T03:03:43.373Z,6.05
2023-01-05T03:06:22.865Z,3.88
2023-01-05T03:08:53.862Z,4.38
2023-01-05T03:11:39.520Z,5.85
2023-01-05T03:14:15.441Z,4.63
2023-01-05T03:16:45.746Z,5.63
2023-01-05T03:19:33.296Z,5.40
2023-01-05T03:22:22.795Z,4.57
2023-01-05T03:25:09.345Z,5.38
2023-01-05T03:27:55.460Z,3.88
2023-01-05T03:30:47.485Z,4.95
2023-01-05T03:33:47.505Z,4.93
2023-01-05T03:36:18.359Z,4.63
2023-01-05T03:38:48.107Z,6.45
2023-01-05T03:41:16.418Z,4.95
2023-01-05T03:43:43.708Z,4.55
2023-01-05T03:46:14.583Z,4.75
2023-01-05T03:48:41.307Z,3.95
2023-01-05T03:51:08.655Z,4.63
2023-01-05T03:53:35.264Z,4.53
2023-01-05T03:56:02.192Z,5.30
2023-01-05T03:58:28.880Z,4.15
2023-01-05T04:00:55.493Z,5.78
2023-01-05T04:03:26.323Z,4.65
2023-01-05T04:05:56.227Z,4.93
2023-01-05T04:08:22.829Z,5.63
2023-01-05T04:10:53.022Z,5.20
2023-01-05T04:13:20.178Z,5.05
2023-01-05T04:15:46.830Z,5.45
2023-01-05T04:18:13.514Z,6.15
2023-01-05T04:20:40.142Z,4.50
2023-01-05T04:23:06.735Z,4.80
2023-01-05T04:25:33.362Z,4.57
2023-01-05T04:28:00.103Z,8.10
2023-01-05T04:30:26.735Z,4.88
2023-01-05T04:32:53.994Z,4.10
2023-01-05T04:35:20.585Z,4.65
2023-01-05T04:37:47.194Z,4.07
2023-01-05T04:40:13.894Z,4.80
2023-01-05T04:42:40.453Z,5.35
2023-01-05T04:45:07.519Z,4.03
2023-01-05T04:47:34.131Z,4.57
2023-01-05T04:50:00.736Z,5.32
2023-01-05T04:52:27.300Z,5.50
2023-01-05T04:54:54.166Z,4.90
2023-01-05T04:57:20.819Z,4.97
2023-01-05T04:59:47.455Z,6.25
2023-01-05T05:02:14.746Z,5.30
2023-01-05T05:04:41.499Z,4.30
2023-01-05T05:07:08.135Z,4.40
2023-01-05T05:09:34.709Z,4.75
2023-01-05T05:12:01.291Z,5.30
2023-01-05T05:14:28.002Z,5.15
2023-01-05T05:16:54.631Z,5.97
2023-01-05T05:19:21.302Z,5.07
2023-01-05T05:21:47.975Z,4.90
2023-01-05T05:24:14.615Z,4.70
2023-01-05T05:26:41.201Z,5.18
2023-01-05T05:29:07.843Z,4.45
2023-01-05T05:31:34.675Z,4.70
2023-01-05T05:34:01.365Z,4.50
2023-01-05T05:36:27.964Z,5.38
2023-01-05T05:38:54.718Z,4.93
2023-01-05T05:41:21.319Z,5.35
2023-01-05T05:43:47.882Z,5.20
2023-01-05T05:46:14.505Z,4.40
2023-01-05T05:48:41.152Z,4.28
2023-01-05T05:51:07.822Z,4.88
2023-01-05T05:53:34.510Z,5.22
2023-01-05T05:56:01.133Z,4.18
2023-01-05T05:58:27.745Z,5.65
2023-01-05T06:00:59.152Z,4.47
2023-01-05T06:03:25.917Z,4.88
2023-01-05T06:05:52.967Z,4.63
2023-01-05T06:08:19.578Z,4.32
2023-01-05T06:10:46.129Z,4.65
2023-01-05T06:13:12.786Z,5.18
2023-01-05T06:15:39.378Z,5.95
2023-01-05T06:18:06.027Z,4.80
2023-01-05T06:20:32.691Z,4.72
2023-01-05T06:22:59.324Z,5.70
2023-01-05T06:25:26.013Z,4.80
2023-01-05T06:27:52.600Z,5.15
2023-01-05T06:30:19.622Z,4.55
2023-01-05T06:32:46.195Z,5.43
2023-01-05T06:35:12.972Z,4.95
2023-01-05T06:37:39.802Z,5.63
2023-01-05T06:40:08.683Z,5.13
2023-01-05T06:42:36.346Z,5.28
2023-01-05T06:45:03.406Z,5.93
2023-01-05T06:47:29.994Z,5.32
2023-01-05T06:49:56.811Z,5.10
2023-01-05T06:52:23.573Z,5.97
2023-01-05T06:54:50.187Z,5.30
2023-01-05T06:57:16.775Z,4.60
2023-01-05T06:59:43.332Z,4.80
2023-01-05T07:02:17.008Z,5.95
2023-01-05T07:04:43.873Z,5.32
2023-01-05T07:07:14.641Z,5.03
2023-01-05T07:09:41.663Z,4.88
2023-01-05T07:12:08.707Z,5.50
2023-01-05T07:14:35.265Z,6.20
2023-01-05T07:17:02.308Z,5.00
2023-01-05T07:19:28.960Z,6.32
2023-01-05T07:21:57.076Z,6.18
2023-01-05T07:24:23.959Z,5.70
2023-01-05T07:26:50.690Z,6.07
2023-01-05T07:29:17.780Z,5.50
2023-01-05T07:31:44.450Z,5.65
2023-01-05T07:34:11.141Z,4.80
2023-01-05T07:36:37.704Z,5.82
2023-01-05T07:39:04.483Z,5.68
2023-01-05T07:41:31.060Z,5.25
2023-01-05T07:43:57.655Z,6.60
2023-01-05T07:46:24.332Z,5.43
2023-01-05T07:48:50.978Z,6.22
2023-01-05T07:51:18.120Z,5.50
2023-01-05T07:53:44.919Z,5.90
2023-01-05T07:56:12.603Z,7.70
2023-01-05T07:58:39.438Z,7.07
2023-01-05T08:01:14.499Z,5.35
2023-01-05T08:03:41.369Z,5.88
2023-01-05T08:06:11.332Z,4.38
2023-01-05T08:08:38.533Z,5.68
2023-01-05T08:11:07.290Z,6.78
2023-01-05T08:13:52.792Z,4.65
2023-01-05T08:16:20.032Z,5.07
2023-01-05T08:18:46.948Z,5.78
2023-01-05T08:21:14.190Z,6.88
2023-01-05T08:23:40.974Z,6.63
2023-01-05T08:26:13.586Z,5.13
2023-01-05T08:28:40.503Z,5.20
2023-01-05T08:31:13.808Z,6.45
2023-01-05T08:33:40.578Z,6.07
2023-01-05T08:36:13.176Z,5.80
2023-01-05T08:38:47.852Z,6.45
2023-01-05T08:41:25.384Z,6.00
2023-01-05T08:43:54.310Z,5.97
2023-01-05T08:46:23.224Z,6.63
2023-01-05T08:48:54.315Z,5.95
2023-01-05T08:51:21.594Z,7.00
2023-01-05T08:53:48.692Z,6.82
2023-01-05T08:56:15.709Z,6.30
2023-01-05T08:58:43.059Z,6.25
2023-01-05T09:01:11.732Z,6.38
2023-01-05T09:03:38.791Z,6.07
2023-01-05T09:06:06.634Z,5.75
2023-01-05T09:08:33.950Z,6.50
2023-01-05T09:11:27.270Z,7.00
2023-01-05T09:13:56.412Z,6.22
2023-01-05T09:16:57.234Z,6.53
2023-01-05T09:19:13.093Z,7.60
2023-01-05T09:21:39.855Z,6.25
2023-01-05T09:24:08.117Z,5.57
2023-01-05T09:26:34.777Z,5.72
2023-01-05T09:29:01.412Z,7.22
2023-01-05T09:31:28.084Z,5.32
2023-01-05T09:33:56.179Z,6.18
2023-01-05T09:36:24.237Z,6.15
2023-01-05T09:38:54.426Z,5.80
2023-01-05T09:41:25.946Z,6.60
2023-01-05T09:44:05.155Z,6.45
2023-01-05T09:46:38.687Z,6.55
2023-01-05T09:49:10.513Z,6.55
2023-01-05T09:51:37.179Z,5.95
2023-01-05T09:54:04.505Z,5.07
2023-01-05T09:59:31.185Z,6.43
2023-01-05T10:02:07.011Z,6.97
2023-01-05T10:04:34.525Z,6.30
2023-01-05T10:07:20.564Z,5.53
2023-01-05T10:09:48.367Z,5.57
2023-01-05T10:12:52.450Z,6.47
2023-01-05T10:15:21.460Z,6.90
2023-01-05T10:17:48.674Z,7.20
2023-01-05T10:20:32.194Z,5.07
2023-01-05T10:23:20.366Z,6.68
2023-01-05T10:26:26.212Z,6.00
2023-01-05T10:29:04.837Z,6.55
2023-01-05T10:31:43.471Z,6.35
2023-01-05T10:34:23.330Z,5.93
2023-01-05T10:37:09.387Z,7.68
2023-01-05T10:40:08.953Z,7.75
2023-01-05T10:43:12.766Z,6.82
2023-01-05T10:46:03.062Z,7.18
2023-01-05T10:48:31.202Z,6.30
2023-01-05T10:50:58.604Z,6.57
2023-01-05T10:53:27.534Z,6.38
2023-01-05T10:55:56.910Z,6.93
2023-01-05T10:58:26.019Z,7.10
2023-01-05T11:00:56.269Z,6.35
2023-01-05T11:04:23.762Z,6.75
2023-01-05T11:06:30.193Z,6.18
2023-01-05T11:09:26.588Z,7.07
2023-01-05T11:11:58.605Z,8.02
2023-01-05T11:14:27.089Z,5.95
2023-01-05T11:17:00.422Z,7.03
2023-01-05T11:19:32.508Z,6.45
2023-01-05T11:22:02.135Z,6.35
2023-01-05T11:24:34.607Z,6.63
2023-01-05T11:27:05.385Z,5.63
2023-01-05T11:29:31.994Z,6.60
2023-01-05T11:32:06.408Z,6.18
2023-01-05T11:34:45.802Z,6.20
2023-01-05T11:37:12.473Z,5.43
2023-01-05T11:40:01.249Z,5.53
2023-01-05T11:42:32.308Z,5.25
2023-01-05T11:45:07.489Z,6.85
2023-01-05T11:47:43.202Z,6.97
2023-01-05T11:50:13.014Z,6.50
2023-01-05T11:52:42.252Z,6.20
2023-01-05T11:55:21.642Z,7.05
2023-01-05T11:57:54.125Z,5.85
2023-01-05T12:00:26.493Z,6.15
2023-01-05T12:03:26.641Z,6.85
2023-01-05T12:06:24.870Z,5.88
2023-01-05T12:09:24.138Z,6.75
2023-01-05T12:12:02.284Z,6.88
2023-01-05T12:14:54.744Z,6.93
2023-01-05T12:17:37.262Z,7.65
2023-01-05T12:20:35.432Z,7.05
2023-01-05T12:23:20.116Z,6.60
2023-01-05T12:26:19.452Z,6.70
2023-01-05T12:34:01.519Z,5.82
2023-01-05T12:36:01.702Z,6.60
2023-01-05T12:38:48.756Z,6.72
2023-01-05T12:41:30.154Z,6.50
2023-01-05T12:44:20.400Z,6.65
2023-01-05T12:46:46.982Z,5.15
2023-01-05T12:49:24.074Z,5.93
2023-01-05T12:52:06.593Z,5.93
2023-01-05T12:54:44.056Z,5.85
2023-01-05T12:57:33.602Z,6.32
2023-01-05T13:00:13.651Z,4.75
2023-01-05T13:03:03.794Z,6.53
2023-01-05T13:05:34.185Z,5.78
2023-01-05T13:08:06.600Z,6.20
2023-01-05T13:10:33.166Z,5.55
2023-01-05T13:13:10.806Z,5.13
2023-01-05T13:15:49.306Z,6.03
2023-01-05T13:18:19.163Z,5.70
2023-01-05T13:20:52.863Z,5.20
2023-01-05T13:23:25.407Z,6.68
2023-01-05T13:26:07.450Z,5.45
2023-01-05T13:28:35.048Z,6.85
2023-01-05T13:31:19.166Z,5.88
2023-01-05T13:34:00.860Z,4.60
2023-01-05T13:37:01.329Z,5.05
2023-01-05T13:39:33.717Z,5.00
2023-01-05T13:42:13.574Z,5.78
2023-01-05T13:44:56.543Z,5.07
2023-01-05T13:47:53.830Z,4.53
2023-01-05T13:50:37.104Z,5.55
2023-01-05T13:53:17.614Z,4.38
2023-01-05T13:55:49.883Z,5.63
2023-01-05T13:58:34.706Z,5.10
2023-01-05T14:01:04.839Z,4.47
2023-01-05T14:03:39.043Z,5.40
2023-01-05T14:06:18.520Z,4.82
2023-01-05T14:08:53.750Z,5.20
2023-01-05T14:11:26.132Z,5.47
2023-01-05T14:13:52.733Z,6.30
2023-01-05T14:16:35.054Z,4.75
2023-01-05T14:19:45.030Z,4.63
2023-01-05T14:22:20.618Z,5.57
2023-01-05T14:24:48.122Z,5.35
2023-01-05T14:27:16.205Z,5.00
2023-01-05T14:29:48.976Z,5.07
2023-01-05T14:32:18.659Z,5.22
2023-01-05T14:34:50.963Z,6.15
2023-01-05T14:37:57.646Z,4.85
2023-01-05T14:40:44.842Z,5.78
2023-01-05T14:43:28.088Z,5.80
2023-01-05T14:46:09.468Z,4.78
2023-01-05T14:48:46.706Z,5.45
2023-01-05T14:51:23.529Z,5.70
2023-01-05T14:53:52.050Z,5.03
2023-01-05T14:56:22.566Z,5.15
2023-01-05T14:58:58.204Z,5.50
2023-01-05T15:01:30.571Z,4.90
2023-01-05T15:04:37.133Z,5.07
2023-01-05T15:07:19.865Z,3.72
2023-01-05T15:09:49.491Z,5.10
2023-01-05T15:12:35.821Z,3.42
2023-01-05T15:15:05.877Z,3.88
2023-01-05T15:17:52.165Z,5.15
2023-01-05T15:20:49.716Z,6.03
2023-01-05T15:23:31.363Z,4.78
2023-01-05T15:26:08.402Z,3.83
2023-01-05T15:28:54.949Z,4.75
2023-01-05T15:31:29.962Z,4.63
2023-01-05T15:34:27.182Z,5.13
2023-01-05T15:37:05.303Z,4.18
2023-01-05T15:39:44.095Z,4.68
2023-01-05T15:42:16.374Z,4.35
2023-01-05T15:44:47.115Z,3.92
2023-01-05T15:47:14.275Z,3.90
2023-01-05T15:49:41.349Z,4.43
2023-01-05T15:52:19.190Z,4.10
2023-01-05T15:54:57.419Z,4.63
2023-01-05T15:57:24.041Z,4.22
2023-01-05T15:59:51.871Z,4.72
2023-01-05T16:02:29.495Z,4.18
2023-01-05T16:05:33.889Z,4.35
2023-01-05T16:08:08.264Z,4.05
2023-01-05T16:10:42.875Z,4.38
2023-01-05T16:13:28.193Z,3.83
2023-01-05T16:15:58.569Z,3.83
2023-01-05T16:18:39.489Z,4.18
2023-01-05T16:21:24.165Z,4.28
2023-01-05T16:23:56.621Z,4.10
2023-01-05T16:26:23.724Z,3.67
2023-01-05T16:28:50.542Z,4.10
2023-01-05T16:31:51.358Z,3.15
2023-01-05T16:34:20.455Z,4.00
2023-01-05T16:37:15.287Z,4.55
2023-01-05T16:39:43.702Z,3.60
2023-01-05T16:42:40.254Z,3.17
2023-01-05T16:45:22.262Z,3.50
2023-01-05T16:47:49.750Z,4.50
2023-01-05T16:50:19.443Z,3.80
2023-01-05T16:52:59.640Z,4.30
2023-01-05T16:55:31.656Z,3.95
2023-01-05T16:57:59.744Z,4.18
2023-01-05T17:00:26.673Z,2.95
2023-01-05T17:03:00.628Z,3.67
2023-01-05T17:05:33.497Z,3.38
2023-01-05T17:08:13.829Z,8.18
2023-01-05T17:10:41.685Z,6.57
2023-01-05T17:13:21.168Z,3.75
2023-01-05T17:15:49.986Z,4.13
2023-01-05T17:18:27.293Z,3.60
2023-01-05T17:20:56.213Z,3.67
2023-01-05T17:23:28.881Z,4.18
2023-01-05T17:25:59.774Z,4.00
2023-01-05T17:28:26.388Z,4.22
2023-01-05T17:30:53.069Z,3.97
2023-01-05T17:33:20.335Z,3.53
2023-01-05T17:38:19.435Z,4.70
2023-01-05T17:40:46.107Z,4.97
2023-01-05T17:43:12.746Z,3.63
2023-01-05T17:45:43.742Z,3.75
2023-01-05T17:50:38.887Z,3.45
2023-01-05T17:53:05.747Z,4.03
2023-01-05T17:55:33.253Z,2.95
2023-01-05T17:58:00.364Z,4.18
2023-01-05T18:00:29.326Z,3.47
2023-01-05T18:02:56.343Z,3.58
2023-01-05T18:05:23.388Z,3.88
2023-01-05T18:07:50.510Z,4.85
2023-01-05T18:10:21.081Z,5.97
2023-01-05T18:12:47.824Z,4.05
2023-01-05T18:15:14.855Z,5.07
2023-01-05T18:17:42.444Z,4.82
2023-01-05T18:20:12.484Z,2.55
2023-01-05T18:22:39.735Z,6.20
2023-01-05T18:27:39.169Z,5.28
2023-01-05T18:30:07.402Z,5.00
2023-01-05T18:32:34.252Z,5.18
2023-01-05T18:35:04.341Z,5.00
2023-01-05T18:37:34.202Z,3.30
2023-01-05T18:40:00.825Z,4.65
2023-01-05T18:42:27.490Z,3.95
2023-01-05T18:44:54.116Z,4.20
2023-01-05T18:47:20.851Z,5.63
2023-01-05T18:49:47.523Z,4.82
2023-01-05T18:52:14.189Z,6.35
2023-01-05T18:54:41.031Z,4.47
2023-01-05T18:57:07.605Z,6.55
2023-01-05T18:59:34.316Z,4.95
2023-01-05T19:02:01.020Z,5.50
2023-01-05T19:04:27.724Z,5.53
2023-01-05T19:06:54.329Z,5.80
2023-01-05T19:09:20.929Z,5.43
2023-01-05T19:11:48.470Z,5.93
2023-01-05T19:14:16.211Z,6.80
2023-01-05T19:16:42.793Z,5.47
2023-01-05T19:19:12.237Z,6.47
2023-01-05T19:21:40.451Z,6.07
2023-01-05T19:24:13.263Z,5.50
2023-01-05T19:26:39.876Z,6.28
2023-01-05T19:29:06.595Z,6.45
2023-01-05T19:31:34.283Z,6.38
2023-01-05T19:34:00.956Z,4.78
2023-01-05T19:36:35.523Z,6.65
2023-01-05T19:39:15.061Z,6.65
2023-01-05T19:41:46.568Z,5.93
2023-01-05T19:44:16.996Z,5.82
2023-01-05T19:46:44.490Z,6.97
2023-01-05T19:49:19.433Z,5.47
2023-01-05T19:51:46.920Z,7.05
2023-01-05T19:54:14.867Z,6.78
2023-01-05T19:56:42.698Z,4.10
2023-01-05T19:59:36.163Z,5.68
2023-01-05T20:02:04.716Z,7.03
2023-01-05T20:04:31.958Z,6.47
2023-01-05T20:06:58.950Z,6.90
2023-01-05T20:09:25.577Z,7.55
2023-01-05T20:11:59.460Z,6.35
2023-01-05T20:14:32.726Z,9.70
2023-01-05T20:17:06.090Z,8.40
2023-01-05T20:19:34.625Z,12.00
2023-01-05T20:22:05.283Z,10.60
2023-01-05T20:24:33.975Z,13.70
2023-01-05T20:27:02.895Z,8.60
2023-01-05T20:29:30.320Z,7.05
2023-01-05T20:32:10.884Z,12.90
2023-01-05T20:34:39.405Z,12.32
2023-01-05T20:37:08.287Z,14.07
2023-01-05T20:39:36.165Z,8.30
2023-01-05T20:42:06.179Z,7.43
2023-01-05T20:44:38.313Z,10.15
2023-01-05T20:47:06.493Z,7.70
2023-01-05T20:49:34.425Z,8.05
2023-01-05T20:52:01.203Z,6.90
2023-01-05T20:54:27.933Z,7.07
2023-01-05T20:56:54.491Z,7.13
2023-01-05T20:59:24.983Z,6.15
2023-01-05T21:01:52.175Z,6.63
2023-01-05T21:04:19.505Z,8.82
2023-01-05T21:06:46.768Z,6.15
2023-01-05T21:09:14.115Z,6.65
2023-01-05T21:11:41.568Z,6.82
2023-01-05T21:14:08.911Z,9.27
2023-01-05T21:16:39.273Z,6.95
2023-01-05T21:19:07.126Z,7.00
2023-01-05T21:21:34.470Z,7.55
2023-01-05T21:24:02.318Z,6.90
2023-01-05T21:26:29.483Z,6.82
2023-01-05T21:28:56.295Z,7.60
2023-01-05T21:31:25.450Z,6.78
2023-01-05T21:33:53.045Z,6.50
2023-01-05T21:36:26.201Z,7.22
2023-01-05T21:39:01.624Z,6.20
2023-01-05T21:41:52.186Z,7.43
2023-01-05T21:44:19.788Z,7.88
2023-01-05T21:46:47.904Z,6.85
2023-01-05T21:49:14.926Z,8.27
2023-01-05T21:52:00.279Z,6.05
2023-01-05T21:54:45.647Z,6.72
2023-01-05T21:57:12.401Z,6.32
2023-01-05T21:59:39.830Z,6.55
2023-01-05T22:02:06.971Z,5.88
2023-01-05T22:04:33.625Z,6.07
2023-01-05T22:07:00.235Z,7.75
2023-01-05T22:09:26.895Z,7.90
2023-01-05T22:11:53.546Z,7.13
2023-01-05T22:14:20.159Z,9.95
2023-01-05T22:16:46.745Z,7.80
2023-01-05T22:19:13.366Z,5.70
2023-01-05T22:21:39.949Z,7.60
2023-01-05T22:24:07.150Z,5.22
2023-01-05T22:26:33.756Z,4.63
2023-01-05T22:29:00.618Z,4.10
2023-01-05T22:31:29.377Z,4.97
2023-01-05T22:33:58.483Z,5.57
2023-01-05T22:36:27.320Z,5.40
2023-01-05T22:38:55.406Z,6.32
2023-01-05T22:41:24.723Z,6.07
2023-01-05T22:43:51.757Z,5.63
2023-01-05T22:46:24.207Z,4.03
2023-01-05T22:48:52.293Z,4.78
2023-01-05T22:51:21.850Z,3.80
2023-01-05T22:53:49.304Z,2.78
2023-01-05T22:56:17.165Z,2.75
2023-01-05T22:58:44.062Z,2.80
2023-01-05T23:01:29.947Z,2.65
2023-01-05T23:03:58.478Z,3.22
2023-01-05T23:06:26.342Z,2.83
2023-01-05T23:08:54.676Z,2.80
2023-01-05T23:11:31.947Z,2.50
2023-01-05T23:14:00.457Z,2.65
2023-01-05T23:16:27.686Z,2.60
2023-01-05T23:18:54.865Z,2.72
2023-01-05T23:21:23.880Z,5.63
2023-01-05T23:23:55.692Z,2.50
2023-01-05T23:26:22.915Z,2.47
2023-01-05T23:28:49.892Z,1.85
2023-01-05T23:31:18.696Z,3.90
2023-01-05T23:33:46.883Z,2.70
2023-01-05T23:36:15.504Z,3.25
2023-01-05T23:38:42.281Z,2.10
2023-01-05T23:41:11.209Z,3.33
2023-01-05T23:43:39.360Z,3.55
2023-01-05T23:46:12.315Z,4.05
2023-01-05T23:48:39.470Z,2.58
2023-01-05T23:51:11.171Z,3.88
2023-01-05T23:53:37.784Z,3.70
2023-01-05T23:56:15.552Z,2.40
2023-01-05T23:58:43.045Z,2.72
